Flight Track Log - Related Links

Times and Time Zones

All times are in EDT time to prevent confusion due to time zone crossing. See the N45EJ flight status page for this flight to view local times or setup timezone preferences in your user account.

Time Position Orientation Groundspeed Altitude Reporting Facility
EDT Latitude Longitude Course Direction KTS MPH feet Rate Location/Type
Sun 07:26:04 PM 41.1175 -100.6647 79° East 178 205 3,200  Level Denver Center
Sun 07:27:06 PM 41.1125 -100.5994 96° East 199 229 5,400 2,118 Climbing Denver Center
Sun 07:28:00 PM 41.2219 -99.9272 80° East  Level FlightAware Approximate
Sun 07:28:20 PM 41.1239 -100.5231 79° East 217 250 8,000  Level Denver Center
Sun 07:29:00 PM 41.2419 -99.7747 80° East  Level FlightAware Approximate
Sun 07:29:22 PM 41.1425 -100.4072 78° East 250 288 11,000  Level Denver Center
Sun 07:30:00 PM 41.2617 -99.6222 80° East  Level FlightAware Approximate
Sun 07:30:24 PM 41.1633 -100.2900 77° East 284 327 13,600  Level Denver Center
Sun 07:31:00 PM 41.2829 -99.4699 79° East  Level FlightAware Approximate
Sun 07:31:26 PM 41.1775 -100.1822 80° East 304 350 15,900  Level Denver Center
Sun 07:32:28 PM 41.2014 -100.0514 76° East 323 372 17,800 1,597 Climbing Denver Center
Sun 07:33:30 PM 41.2389 -99.9475 64° Northeast 325 374 19,200 1,392 Climbing Denver Center
Sun 07:34:33 PM 41.2814 -99.8444 61° Northeast 330 380 20,700 1,680 Climbing Denver Center
Sun 07:35:35 PM 41.3344 -99.7144 61° Northeast 353 406 22,700 1,839 Climbing Denver Center
Sun 07:36:37 PM 41.3881 -99.6006 58° Northeast 369 425 24,500 1,694 Climbing Denver Center
Sun 07:37:39 PM 41.4450 -99.4761 59° Northeast 386 444 26,200 1,597 Climbing Denver Center
Sun 07:38:41 PM 41.5019 -99.3486 59° Northeast 395 455 27,800 1,500 Climbing Denver Center
Sun 07:39:43 PM 41.5750 -99.1894 58° Northeast 412 474 29,300 1,210 Climbing Denver Center
Sun 07:40:45 PM 41.6342 -99.0467 61° Northeast 429 494 30,300 823 Climbing Denver Center
Sun 07:41:47 PM 41.6953 -98.8981 61° Northeast 447 514 31,000 339 Climbing Denver Center
Sun 07:42:49 PM 41.7344 -98.7244 73° East 485 558 31,000  Level Denver Center
Sun 07:43:51 PM 41.7850 -98.5936 63° Northeast 492 566 31,000  Level Denver Center
Sun 07:45:19 PM 41.8847 -98.3264 63° Northeast 500 575 31,000 240 Level Minneapolis Center
Sun 07:46:21 PM 41.9047 -98.1264 82° East 507 583 31,600 750 Climbing Minneapolis Center
Sun 07:47:35 PM 41.9192 -97.9378 84° East 507 583 32,700 1,059 Climbing Minneapolis Center
Sun 07:48:37 PM 41.9356 -97.7128 84° East 507 583 34,000 1,403 Climbing Minneapolis Center
Sun 07:49:39 PM 41.9514 -97.4861 85° East 508 585 35,600 1,463 Climbing Minneapolis Center
Sun 07:50:40 PM 41.9644 -97.2994 85° East 503 579 37,000 1,268 Climbing Minneapolis Center
Sun 07:51:42 PM 41.9767 -97.1128 85° East 500 575 38,200 1,161 Climbing Minneapolis Center
Sun 07:52:44 PM 41.9889 -96.9250 85° East 503 579 39,400 1,171 Climbing Minneapolis Center
Sun 07:53:45 PM 42.0006 -96.7378 85° East 502 578 40,600 780 Climbing Minneapolis Center
Sun 07:54:47 PM 42.0125 -96.5517 85° East 499 574 41,000 194 Climbing Minneapolis Center
Sun 07:55:49 PM 42.0247 -96.3594 85° East 508 585 41,000  Level Minneapolis Center
Sun 07:56:50 PM 42.0353 -96.1619 86° East 523 602 41,000  Level Minneapolis Center
Sun 07:57:52 PM 42.0469 -95.9611 85° East 533 613 41,000  Level Minneapolis Center
Sun 07:58:54 PM 42.0603 -95.7203 86° East 535 616 41,000  Level Minneapolis Center
Sun 07:59:56 PM 42.0700 -95.5189 86° East 538 619 41,000  Level Minneapolis Center
Sun 08:00:57 PM 42.0808 -95.3175 86° East 537 618 41,000  Level Minneapolis Center
Sun 08:01:59 PM 42.0892 -95.1183 87° East 534 615 41,000  Level Minneapolis Center
Sun 08:03:01 PM 42.0992 -94.9183 86° East 534 615 41,000  Level Minneapolis Center
Sun 08:04:02 PM 42.1072 -94.7167 87° East 537 618 41,000  Level Minneapolis Center
Sun 08:05:04 PM 42.1172 -94.5161 86° East 538 619 41,000  Level Minneapolis Center
Sun 08:06:06 PM 42.1256 -94.3156 87° East 536 617 41,000  Level Minneapolis Center
Sun 08:07:07 PM 42.1336 -94.1139 87° East 538 619 41,000  Level Minneapolis Center
Sun 08:08:09 PM 42.1431 -93.8744 87° East 534 615 41,000  Level Minneapolis Center
Sun 08:09:11 PM 42.1500 -93.6953 87° East 536 617 41,000  Level Minneapolis Center
Sun 08:10:12 PM 42.1572 -93.4975 87° East 535 616 41,000  Level Minneapolis Center
Sun 08:11:26 PM 42.1656 -93.2617 87° East 533 613 41,000 -176 Level Minneapolis Center
Sun 08:12:28 PM 42.1736 -93.0242 87° East 534 615 40,600 -677 Descending Minneapolis Center
Sun 08:13:30 PM 42.1783 -92.8319 88° East 526 605 39,600 -1,073 Descending Minneapolis Center
Sun 08:14:31 PM 42.1844 -92.6383 87° East 524 603 38,400 -1,122 Descending Minneapolis Center
Sun 08:15:33 PM 42.1903 -92.4439 88° East 524 603 37,300 -677 Descending Minneapolis Center
Sun 08:16:35 PM 42.1933 -92.2489 89° East 526 605 37,000 -146 Descending Minneapolis Center
Sun 08:17:36 PM 42.1989 -92.0183 88° East 522 601 37,000  Level Minneapolis Center
Sun 08:18:38 PM 42.2033 -91.8242 88° East 524 603 37,000 -195 Level Minneapolis Center
Sun 08:19:39 PM 42.2064 -91.6314 89° East 525 604 36,600 -1,000 Descending Minneapolis Center
Sun 08:20:50 PM 42.2106 -91.3994 89° East 522 601 34,800 -1,985 Descending Chicago Center
Sun 08:21:52 PM 42.2144 -91.2097 88° East 517 595 32,200 -2,516 Descending Chicago Center
Sun 08:22:54 PM 42.2164 -91.0253 89° East 503 579 29,600 -2,758 Descending Chicago Center
Sun 08:23:56 PM 42.2181 -90.7958 89° East 514 592 26,500 -2,613 Descending Chicago Center
Sun 08:24:58 PM 42.2211 -90.6025 89° East 522 601 24,200 -1,742 Descending Chicago Center
Sun 08:26:00 PM 42.2219 -90.4303 90° East 472 543 22,900 -1,839 Descending Chicago Center
Sun 08:27:02 PM 42.2231 -90.2592 89° East 463 533 20,400 -2,613 Descending Chicago Center
Sun 08:28:04 PM 42.2244 -90.0622 89° East 445 512 17,500 -2,613 Descending Chicago Center
Sun 08:29:06 PM 42.2242 -89.9028 90° East 426 490 15,000 -2,400 Descending Chicago Center
Sun 08:30:09 PM 42.2247 -89.7489 90° East 413 475 12,500 -2,371 Descending Chicago Center
Sun 08:31:10 PM 42.2261 -89.6022 89° East 396 456 10,100 -1,220 Descending Chicago Center
Sun 08:32:12 PM 42.2247 -89.4569 91° East 388 447 10,000 -242 Descending Chicago Center
Sun 08:33:14 PM 42.2250 -89.2944 90° East 374 430 9,600 -484 Descending Chicago Center
Sun 08:34:16 PM 42.2272 -89.1797 88° East 318 366 9,000 -919 Descending Chicago Center
Sun 08:35:18 PM 42.2553 -89.0678 71° East 317 365 7,700 -1,355 Descending Chicago Center
Sun 08:36:20 PM 42.2781 -88.9539 75° East 315 362 6,200 -1,248 Descending Chicago Center
Sun 08:37:23 PM 42.3011 -88.8453 74° East 304 350 5,100 -576 Descending Chicago Center
Sun 08:38:25 PM 42.3264 -88.7231 74° East 296 341 5,000 -48 Descending Chicago Center
Sun 08:39:27 PM 42.3497 -88.6156 74° East 295 339 5,000  Level Chicago Center
Sun 08:40:29 PM 42.3625 -88.5069 81° East 296 341 5,000 -145 Level Chicago Center
Sun 08:41:31 PM 42.3517 -88.3950 97° East 297 342 4,700 -387 Descending Chicago Center
Sun 08:42:33 PM 42.3417 -88.2886 97° East 288 331 4,200 -387 Descending Chicago Center
Sun 08:43:35 PM 42.3281 -88.1597 98° East 293 337 3,900 -532 Descending Chicago Center
Sun 08:44:37 PM 42.3211 -88.0564 95° East 284 327 3,100 -726 Descending Chicago Center
Sun 08:45:39 PM 42.2819 -87.9872 127° Southeast 251 289 2,400 -387 Descending Chicago Center
Sun 08:46:41 PM 42.2281 -87.9633 162° South 214 246 2,300 -242 Descending Chicago Center
Sun 08:47:43 PM 42.1808 -87.9375 158° South 193 222 1,900 -339 Descending Chicago Center
Sun 08:48:45 PM 42.1283 -87.9061 156° South 187 215 1,600 -290 Descending Chicago Center

Login

Don't have an account? Register now (free) for customized features, flight alerts, and more!